createdAt,value
2019-04-05T00:00:15.179Z,408.76
2019-04-05T00:01:15.580Z,408.87
2019-04-05T00:02:15.881Z,408.91
2019-04-05T00:03:16.246Z,409.10
2019-04-05T00:04:16.565Z,409.14
2019-04-05T00:05:16.952Z,409.19
2019-04-05T00:06:17.310Z,408.90
2019-04-05T00:07:17.656Z,409.02
2019-04-05T00:08:18.028Z,408.76
2019-04-05T00:09:18.360Z,408.70
2019-04-05T00:10:18.834Z,408.92
2019-04-05T00:11:19.073Z,408.81
2019-04-05T00:12:19.416Z,408.81
2019-04-05T00:13:20.035Z,409.02
2019-04-05T00:14:20.126Z,409.01
2019-04-05T00:15:20.494Z,408.83
2019-04-05T00:16:20.824Z,408.99
2019-04-05T00:17:21.190Z,409.15
2019-04-05T00:18:21.711Z,408.93
2019-04-05T00:19:21.884Z,409.13
2019-04-05T00:20:22.235Z,409.42
2019-04-05T00:21:22.601Z,408.73
2019-04-05T00:22:22.962Z,408.86
2019-04-05T00:23:23.331Z,409.45
2019-04-05T00:24:23.666Z,409.00
2019-04-05T00:25:24.020Z,408.72
2019-04-05T00:26:24.452Z,408.70
2019-04-05T00:27:24.703Z,408.63
2019-04-05T00:28:25.100Z,408.89
2019-04-05T00:29:25.436Z,408.34
2019-04-05T00:30:25.800Z,408.37
2019-04-05T00:31:26.167Z,408.78
2019-04-05T00:32:26.500Z,408.74
2019-04-05T00:33:26.870Z,408.87
2019-04-05T00:34:27.271Z,408.82
2019-04-05T00:35:27.549Z,408.96
2019-04-05T00:36:27.964Z,409.03
2019-04-05T00:37:28.284Z,408.95
2019-04-05T00:38:28.700Z,409.19
2019-04-05T00:39:28.989Z,408.85
2019-04-05T00:40:29.360Z,409.10
2019-04-05T00:41:29.742Z,409.22
2019-04-05T00:42:30.085Z,409.07
2019-04-05T00:43:30.527Z,409.08
2019-04-05T00:44:30.771Z,408.91
2019-04-05T00:45:31.117Z,409.19
2019-04-05T00:46:31.497Z,409.37
2019-04-05T00:47:31.825Z,409.24
2019-04-05T00:48:32.197Z,409.04
2019-04-05T00:49:32.521Z,409.16
2019-04-05T00:50:32.885Z,408.89
2019-04-05T00:51:33.406Z,409.05
2019-04-05T00:52:33.590Z,409.00
2019-04-05T00:53:33.960Z,409.09
2019-04-05T00:54:34.322Z,409.25
2019-04-05T00:55:34.655Z,409.18
2019-04-05T00:56:35.032Z,409.10
2019-04-05T00:57:35.362Z,409.11
2019-04-05T00:58:35.732Z,408.98
2019-04-05T00:59:36.168Z,409.28
2019-04-05T01:00:36.387Z,409.02
2019-04-05T01:01:36.799Z,409.10
2019-04-05T01:02:37.120Z,409.08
2019-04-05T01:03:37.486Z,409.00
2019-04-05T01:04:37.820Z,408.93
2019-04-05T01:05:38.173Z,409.19
2019-04-05T01:06:38.536Z,409.20
2019-04-05T01:07:38.935Z,409.19
2019-04-05T01:08:39.234Z,409.17
2019-04-05T01:09:39.570Z,409.24
2019-04-05T01:10:39.922Z,409.18
2019-04-05T01:11:40.305Z,409.37
2019-04-05T01:12:40.620Z,409.44
2019-04-05T01:13:41.009Z,409.47
2019-04-05T01:14:41.337Z,409.19
2019-04-05T01:15:41.716Z,409.30
2019-04-05T01:16:42.330Z,409.54
2019-04-05T01:17:42.391Z,409.35
2019-04-05T01:18:42.754Z,409.27
2019-04-05T01:19:43.098Z,409.26
2019-04-05T01:20:43.444Z,409.03
2019-04-05T01:21:43.823Z,409.24
2019-04-05T01:22:44.151Z,409.13
2019-04-05T01:23:44.509Z,409.18
2019-04-05T01:24:44.937Z,409.37
2019-04-05T01:25:45.207Z,409.16
2019-04-05T01:26:45.954Z,409.05
2019-04-05T01:27:48.239Z,409.29
2019-04-05T01:28:46.276Z,409.46
2019-04-05T01:29:46.626Z,409.43
2019-04-05T01:30:46.978Z,409.33
2019-04-05T01:31:47.378Z,409.07
2019-04-05T01:32:47.812Z,409.28
2019-04-05T01:33:48.149Z,409.62
2019-04-05T01:34:48.495Z,409.35
2019-04-05T01:35:48.856Z,409.28
2019-04-05T01:36:49.243Z,415.85
2019-04-05T01:37:49.572Z,415.78
2019-04-05T01:38:49.950Z,416.15
2019-04-05T01:39:50.295Z,415.84
2019-04-05T01:40:50.701Z,415.56
2019-04-05T01:41:51.043Z,415.67
2019-04-05T01:42:51.373Z,415.58
2019-04-05T01:43:51.747Z,415.90
2019-04-05T01:44:52.115Z,415.64
2019-04-05T01:45:53.885Z,415.71
2019-04-05T01:46:52.833Z,415.74
2019-04-05T01:47:53.162Z,415.74
2019-04-05T01:48:53.554Z,415.88
2019-04-05T01:49:53.947Z,415.58
2019-04-05T01:50:54.253Z,415.57
2019-04-05T01:51:54.901Z,415.48
2019-04-05T01:52:54.988Z,415.63
2019-04-05T01:53:55.365Z,415.49
2019-04-05T01:54:55.723Z,415.83
2019-04-05T01:55:56.061Z,415.45
2019-04-05T01:56:56.439Z,415.92
2019-04-05T01:57:56.880Z,415.61
2019-04-05T01:58:57.146Z,415.78
2019-04-05T01:59:57.514Z,416.06
2019-04-05T02:00:57.862Z,415.73
2019-04-05T02:01:58.246Z,415.52
2019-04-05T02:02:58.572Z,415.40
2019-04-05T02:03:58.969Z,415.42
2019-04-05T02:04:59.329Z,415.74
2019-04-05T02:05:59.746Z,415.69
2019-04-05T02:06:59.964Z,415.76
2019-04-05T02:08:00.307Z,415.58
2019-04-05T02:09:00.693Z,415.66
2019-04-05T02:10:01.028Z,415.48
2019-04-05T02:11:01.383Z,415.60
2019-04-05T02:12:01.745Z,415.35
2019-04-05T02:13:02.095Z,415.31
2019-04-05T02:14:02.732Z,415.65
2019-04-05T02:15:02.871Z,415.69
2019-04-05T02:16:06.494Z,415.60
2019-04-05T02:17:03.616Z,415.85
2019-04-05T02:18:03.914Z,415.59
2019-04-05T02:19:04.314Z,415.67
2019-04-05T02:20:04.673Z,415.63
2019-04-05T02:21:05.012Z,415.71
2019-04-05T02:22:05.432Z,415.88
2019-04-05T02:23:05.697Z,415.67
2019-04-05T02:24:06.100Z,415.93
2019-04-05T02:25:06.457Z,415.64
2019-04-05T02:26:06.804Z,415.70
2019-04-05T02:27:07.194Z,415.77
2019-04-05T02:28:07.526Z,415.95
2019-04-05T02:29:07.872Z,415.70
2019-04-05T02:30:08.279Z,415.73
2019-04-05T02:31:08.719Z,415.67
2019-04-05T02:32:09.010Z,415.81
2019-04-05T02:33:09.344Z,415.60
2019-04-05T02:34:09.680Z,415.44
2019-04-05T02:35:10.080Z,415.64
2019-04-05T02:36:10.414Z,415.48
2019-04-05T02:37:10.810Z,415.56
2019-04-05T02:38:11.146Z,415.59
2019-04-05T02:39:11.607Z,415.54
2019-04-05T02:40:11.894Z,415.69
2019-04-05T02:41:12.226Z,415.77
2019-04-05T02:42:12.614Z,409.03
2019-04-05T02:43:12.959Z,409.11
2019-04-05T02:44:13.313Z,409.48
2019-04-05T02:45:13.667Z,409.51
2019-04-05T02:46:23.543Z,409.51
2019-04-05T02:47:15.423Z,409.22
2019-04-05T02:48:14.723Z,409.43
2019-04-05T02:49:15.088Z,409.28
2019-04-05T02:50:15.466Z,409.22
2019-04-05T02:51:15.784Z,409.31
2019-04-05T02:52:16.168Z,409.36
2019-04-05T02:53:16.537Z,409.31
2019-04-05T02:54:16.900Z,409.42
2019-04-05T02:55:17.331Z,409.34
2019-04-05T02:56:17.580Z,409.29
2019-04-05T02:57:17.956Z,409.22
2019-04-05T02:58:18.333Z,409.57
2019-04-05T02:59:18.673Z,409.56
2019-04-05T03:00:19.053Z,409.51
2019-04-05T03:01:22.608Z,409.54
2019-04-05T03:02:19.751Z,409.21
2019-04-05T03:03:20.147Z,409.32
2019-04-05T03:04:20.566Z,409.31
2019-04-05T03:05:20.875Z,409.33
2019-04-05T03:06:21.187Z,409.37
2019-04-05T03:07:21.548Z,409.41
2019-04-05T03:08:21.939Z,409.22
2019-04-05T03:09:22.289Z,409.36
2019-04-05T03:10:22.661Z,409.62
2019-04-05T03:11:23.011Z,409.38
2019-04-05T03:12:23.473Z,409.35
2019-04-05T03:13:23.743Z,409.39
2019-04-05T03:14:24.083Z,409.37
2019-04-05T03:15:24.455Z,409.35
2019-04-05T03:16:38.568Z,409.23
2019-04-05T03:17:26.546Z,409.15
2019-04-05T03:18:25.516Z,409.49
2019-04-05T03:19:25.855Z,409.41
2019-04-05T03:20:26.315Z,409.44
2019-04-05T03:21:26.583Z,409.56
2019-04-05T03:22:26.952Z,409.51
2019-04-05T03:23:27.318Z,409.56
2019-04-05T03:24:27.642Z,409.38
2019-04-05T03:25:28.046Z,409.59
2019-04-05T03:26:28.369Z,409.46
2019-04-05T03:27:28.743Z,409.21
2019-04-05T03:28:29.136Z,409.20
2019-04-05T03:29:29.427Z,409.20
2019-04-05T03:30:29.826Z,409.30
2019-04-05T03:31:30.176Z,409.42
2019-04-05T03:32:30.553Z,409.64
2019-04-05T03:33:31.144Z,409.44
2019-04-05T03:34:31.277Z,409.77
2019-04-05T03:35:31.630Z,409.60
2019-04-05T03:36:32.017Z,409.38
2019-04-05T03:37:36.800Z,409.57
2019-04-05T03:38:32.719Z,409.61
2019-04-05T03:39:33.057Z,409.63
2019-04-05T03:40:33.438Z,409.63
2019-04-05T03:41:33.771Z,409.44
2019-04-05T03:42:34.139Z,409.50
2019-04-05T03:43:34.508Z,409.52
2019-04-05T03:44:34.868Z,409.68
2019-04-05T03:45:35.328Z,409.60
2019-04-05T03:46:35.555Z,409.32
2019-04-05T03:47:35.912Z,409.52
2019-04-05T03:48:36.305Z,409.69
2019-04-05T03:49:36.648Z,409.50
2019-04-05T03:50:37.034Z,409.54
2019-04-05T03:51:37.365Z,409.27
2019-04-05T03:52:37.746Z,409.50
2019-04-05T03:53:38.213Z,409.74
2019-04-05T03:54:38.436Z,409.47
2019-04-05T03:55:38.812Z,409.74
2019-04-05T03:56:39.157Z,409.71
2019-04-05T03:57:39.499Z,409.55
2019-04-05T03:58:39.894Z,409.42
2019-04-05T03:59:40.250Z,409.43
2019-04-05T04:00:40.608Z,409.43
2019-04-05T04:01:41.029Z,409.19
2019-04-05T04:02:41.314Z,409.65
2019-04-05T04:03:41.684Z,409.49
2019-04-05T04:04:42.035Z,409.64
2019-04-05T04:05:42.421Z,409.68
2019-04-05T04:06:42.769Z,409.53
2019-04-05T04:07:43.128Z,409.69
2019-04-05T04:08:43.511Z,409.37
2019-04-05T04:09:43.895Z,409.71
2019-04-05T04:10:44.210Z,409.60
2019-04-05T04:11:44.580Z,409.78
2019-04-05T04:12:44.936Z,409.99
2019-04-05T04:13:45.324Z,409.83
2019-04-05T04:14:45.678Z,409.93
2019-04-05T04:15:46.022Z,409.70
2019-04-05T04:16:46.429Z,409.89
2019-04-05T04:17:46.814Z,409.88
2019-04-05T04:18:47.187Z,409.34
2019-04-05T04:19:47.457Z,409.76
2019-04-05T04:20:47.812Z,409.86
2019-04-05T04:21:48.197Z,409.85
2019-04-05T04:22:48.663Z,409.96
2019-04-05T04:23:48.911Z,410.07
2019-04-05T04:24:49.253Z,409.81
2019-04-05T04:25:49.628Z,409.87
2019-04-05T04:26:50.121Z,409.95
2019-04-05T04:27:50.777Z,409.72
2019-04-05T04:28:50.710Z,409.76
2019-04-05T04:29:51.054Z,409.85
2019-04-05T04:30:51.406Z,409.84
2019-04-05T04:31:51.767Z,409.92
2019-04-05T04:32:52.182Z,409.50
2019-04-05T04:33:52.518Z,409.92
2019-04-05T04:34:52.901Z,409.80
2019-04-05T04:35:53.209Z,409.92
2019-04-05T04:36:53.561Z,409.82
2019-04-05T04:37:53.943Z,409.86
2019-04-05T04:38:54.297Z,409.87
2019-04-05T04:39:54.648Z,409.87
2019-04-05T04:40:54.997Z,410.16
2019-04-05T04:41:55.387Z,410.15
2019-04-05T04:42:55.752Z,409.88
2019-04-05T04:43:56.147Z,410.10
2019-04-05T04:44:56.424Z,410.16
2019-04-05T04:45:56.785Z,409.77
2019-04-05T04:46:57.161Z,410.05
2019-04-05T04:47:57.505Z,409.81
2019-04-05T04:48:57.875Z,409.93
2019-04-05T04:49:58.214Z,409.81
2019-04-05T04:50:58.623Z,410.05
2019-04-05T04:51:59.013Z,410.38
2019-04-05T04:52:59.341Z,409.85
2019-04-05T04:53:59.735Z,409.92
2019-04-05T04:55:00.046Z,409.80
2019-04-05T04:56:00.417Z,409.94
2019-04-05T04:57:00.812Z,410.13
2019-04-05T04:58:01.136Z,409.66
2019-04-05T04:59:01.560Z,409.89
2019-04-05T05:00:01.943Z,409.81
2019-04-05T05:01:02.218Z,416.20
2019-04-05T05:02:02.599Z,415.91
2019-04-05T05:03:02.944Z,416.18
2019-04-05T05:04:03.323Z,415.95
2019-04-05T05:05:03.636Z,415.94
2019-04-05T05:06:03.996Z,416.25
2019-04-05T05:07:04.386Z,416.20
2019-04-05T05:08:04.854Z,416.05
2019-04-05T05:09:05.089Z,415.92
2019-04-05T05:10:05.435Z,416.23
2019-04-05T05:11:14.020Z,416.05
2019-04-05T05:12:07.427Z,415.97
2019-04-05T05:13:06.524Z,416.26
2019-04-05T05:14:06.985Z,416.13
2019-04-05T05:15:07.265Z,415.83
2019-04-05T05:16:07.678Z,416.05
2019-04-05T05:17:08.006Z,416.13
2019-04-05T05:18:08.334Z,416.07
2019-04-05T05:19:08.691Z,416.15
2019-04-05T05:20:09.071Z,416.03
2019-04-05T05:21:09.410Z,416.10
2019-04-05T05:22:09.790Z,416.23
2019-04-05T05:23:10.176Z,416.28
2019-04-05T05:24:10.593Z,416.07
2019-04-05T05:25:10.880Z,410.36
2019-04-05T05:26:11.213Z,410.15
2019-04-05T05:27:11.588Z,410.12
2019-04-05T05:28:11.918Z,410.15
2019-04-05T05:29:12.308Z,410.18
2019-04-05T05:30:12.673Z,410.13
2019-04-05T05:31:13.017Z,410.31
2019-04-05T05:32:13.443Z,410.18
2019-04-05T05:33:13.778Z,410.16
2019-04-05T05:34:14.129Z,409.90
2019-04-05T05:35:14.480Z,410.00
2019-04-05T05:36:14.820Z,410.22
2019-04-05T05:37:15.224Z,410.44
2019-04-05T05:38:15.536Z,410.12
2019-04-05T05:39:15.880Z,410.16
2019-04-05T05:40:16.278Z,410.26
2019-04-05T05:41:16.728Z,410.23
2019-04-05T05:42:17.029Z,410.12
2019-04-05T05:43:17.347Z,410.15
2019-04-05T05:44:17.678Z,410.09
2019-04-05T05:45:18.084Z,410.05
2019-04-05T05:46:18.427Z,410.28
2019-04-05T05:47:18.828Z,410.61
2019-04-05T05:48:19.151Z,410.02
2019-04-05T05:49:19.573Z,410.04
2019-04-05T05:50:19.913Z,410.17
2019-04-05T05:51:20.214Z,409.62
2019-04-05T05:52:20.601Z,410.28
2019-04-05T05:53:20.934Z,410.24
2019-04-05T05:54:21.315Z,410.22
2019-04-05T05:55:21.653Z,410.41
2019-04-05T05:56:22.017Z,410.29
2019-04-05T05:57:22.456Z,410.23
2019-04-05T05:58:25.349Z,409.99
2019-04-05T05:59:23.099Z,410.06
2019-04-05T06:00:23.475Z,410.15
2019-04-05T06:01:23.800Z,410.32
2019-04-05T06:02:24.190Z,410.12
2019-04-05T06:03:24.543Z,410.20
2019-04-05T06:04:24.910Z,410.46
2019-04-05T06:05:25.345Z,410.14
2019-04-05T06:06:25.613Z,409.98
2019-04-05T06:07:26.004Z,410.11
2019-04-05T06:08:28.965Z,409.96
2019-04-05T06:09:26.733Z,410.27
2019-04-05T06:10:27.103Z,410.24
2019-04-05T06:11:27.443Z,409.93
2019-04-05T06:12:27.805Z,410.09
2019-04-05T06:13:28.153Z,410.23
2019-04-05T06:14:28.630Z,410.31
2019-04-05T06:15:28.891Z,410.72
2019-04-05T06:16:29.236Z,410.35
2019-04-05T06:17:29.583Z,410.43
2019-04-05T06:18:29.979Z,410.48
2019-04-05T06:19:30.368Z,410.16
2019-04-05T06:20:30.716Z,410.22
2019-04-05T06:21:31.058Z,410.02
2019-04-05T06:22:31.536Z,410.33
2019-04-05T06:23:33.816Z,409.96
2019-04-05T06:24:32.162Z,410.40
2019-04-05T06:25:32.532Z,410.15
2019-04-05T06:26:32.870Z,410.10
2019-04-05T06:27:35.350Z,416.04
2019-04-05T06:28:33.617Z,416.16
2019-04-05T06:29:33.963Z,416.31
2019-04-05T06:30:34.421Z,416.31
2019-04-05T06:31:34.672Z,416.14
2019-04-05T06:32:35.037Z,415.94
2019-04-05T06:33:35.873Z,416.23
2019-04-05T06:34:35.745Z,416.32
2019-04-05T06:35:36.130Z,416.22
2019-04-05T06:36:36.488Z,416.14
2019-04-05T06:37:36.846Z,416.01
2019-04-05T06:38:37.282Z,416.01
2019-04-05T06:39:37.547Z,415.98
2019-04-05T06:40:41.130Z,416.19
2019-04-05T06:41:38.289Z,416.28
2019-04-05T06:42:38.637Z,416.35
2019-04-05T06:43:39.008Z,416.19
2019-04-05T06:44:39.377Z,416.05
2019-04-05T06:45:39.738Z,415.90
2019-04-05T06:46:40.083Z,416.00
2019-04-05T06:47:40.542Z,415.95
2019-04-05T06:48:40.824Z,415.77
2019-04-05T06:49:41.163Z,415.62
2019-04-05T06:50:41.773Z,415.58
2019-04-05T06:51:41.855Z,415.70
2019-04-05T06:52:42.229Z,415.67
2019-04-05T06:53:42.624Z,415.81
2019-04-05T06:54:42.983Z,415.60
2019-04-05T06:55:43.463Z,415.57
2019-04-05T06:56:43.678Z,416.15
2019-04-05T06:57:44.049Z,415.80
2019-04-05T06:58:46.120Z,415.67
2019-04-05T06:59:44.785Z,415.71
2019-04-05T07:00:56.519Z,415.57
2019-04-05T07:01:46.498Z,415.74
2019-04-05T07:02:45.839Z,415.55
2019-04-05T07:03:46.360Z,415.41
2019-04-05T07:04:46.582Z,415.63
2019-04-05T07:05:46.943Z,415.65
2019-04-05T07:06:47.284Z,415.58
2019-04-05T07:07:47.626Z,415.45
2019-04-05T07:08:53.712Z,415.74
2019-04-05T07:09:49.377Z,415.64
2019-04-05T07:10:48.757Z,415.42
2019-04-05T07:11:49.150Z,415.56
2019-04-05T07:12:49.460Z,415.55
2019-04-05T07:13:49.816Z,415.47
2019-04-05T07:14:50.172Z,415.42
2019-04-05T07:15:50.804Z,415.27
2019-04-05T07:16:50.897Z,415.46
2019-04-05T07:17:51.258Z,415.35
2019-04-05T07:18:51.647Z,415.26
2019-04-05T07:19:52.001Z,415.29
2019-04-05T07:20:52.369Z,415.57
2019-04-05T07:21:52.709Z,415.38
2019-04-05T07:22:53.080Z,415.68
2019-04-05T07:23:53.460Z,415.38
2019-04-05T07:24:53.806Z,415.27
2019-04-05T07:25:54.145Z,415.35
2019-04-05T07:26:54.550Z,415.52
2019-04-05T07:27:54.908Z,415.42
2019-04-05T07:28:55.393Z,415.66
2019-04-05T07:29:55.609Z,415.70
2019-04-05T07:30:55.973Z,415.28
2019-04-05T07:31:56.364Z,415.45
2019-04-05T07:32:56.713Z,415.57
2019-04-05T07:33:57.081Z,415.27
2019-04-05T07:34:57.437Z,415.50
2019-04-05T07:35:57.781Z,415.59
2019-04-05T07:36:58.324Z,415.04
2019-04-05T07:37:58.496Z,415.33
2019-04-05T07:38:58.881Z,415.87
2019-04-05T07:39:59.234Z,415.16
2019-04-05T07:40:59.568Z,415.72
2019-04-05T07:41:59.943Z,415.65
2019-04-05T07:43:00.299Z,415.58
2019-04-05T07:44:00.676Z,415.50
2019-04-05T07:45:01.118Z,415.51
2019-04-05T07:46:01.358Z,415.84
2019-04-05T07:47:01.728Z,415.50
2019-04-05T07:48:02.069Z,415.69
2019-04-05T07:49:02.473Z,415.63
2019-04-05T07:50:02.818Z,415.46
2019-04-05T07:51:03.166Z,415.64
2019-04-05T07:52:03.545Z,415.61
2019-04-05T07:53:03.897Z,415.54
2019-04-05T07:54:04.240Z,415.78
2019-04-05T07:55:04.615Z,415.78
2019-04-05T07:56:04.976Z,415.94
2019-04-05T07:57:05.357Z,415.99
2019-04-05T07:58:05.683Z,415.64
2019-04-05T07:59:06.055Z,415.45
2019-04-05T08:00:06.408Z,415.70
2019-04-05T08:01:06.803Z,415.60
2019-04-05T08:02:07.262Z,415.64
2019-04-05T08:03:07.487Z,415.86
2019-04-05T08:04:07.860Z,415.66
2019-04-05T08:05:08.283Z,415.62
2019-04-05T08:06:08.588Z,415.75
2019-04-05T08:07:08.965Z,415.59
2019-04-05T08:08:09.298Z,415.79
2019-04-05T08:09:09.717Z,415.36
2019-04-05T08:10:10.140Z,415.64
2019-04-05T08:11:10.378Z,415.86
2019-04-05T08:12:10.758Z,416.03
2019-04-05T08:13:11.094Z,416.13
2019-04-05T08:14:11.503Z,415.99
2019-04-05T08:15:11.802Z,415.93
2019-04-05T08:16:12.181Z,416.03
2019-04-05T08:17:12.574Z,415.94
2019-04-05T08:18:12.964Z,416.05
2019-04-05T08:19:13.278Z,415.82
2019-04-05T08:20:13.614Z,416.11
2019-04-05T08:21:13.967Z,416.05
2019-04-05T08:22:14.361Z,415.78
2019-04-05T08:23:14.704Z,415.93
2019-04-05T08:24:15.067Z,416.18
2019-04-05T08:25:15.450Z,415.82
2019-04-05T08:26:15.805Z,415.96
2019-04-05T08:27:16.155Z,416.08
2019-04-05T08:28:16.510Z,415.93
2019-04-05T08:29:16.867Z,416.01
2019-04-05T08:30:17.498Z,416.07
2019-04-05T08:31:17.836Z,415.82
2019-04-05T08:32:18.219Z,415.82
2019-04-05T08:33:18.551Z,416.06
2019-04-05T08:34:18.992Z,416.13
2019-04-05T08:35:19.371Z,416.06
2019-04-05T08:36:19.655Z,416.22
2019-04-05T08:37:20.028Z,415.91
2019-04-05T08:38:20.351Z,416.03
2019-04-05T08:39:20.729Z,416.08
2019-04-05T08:40:21.120Z,416.15
2019-04-05T08:41:21.448Z,416.14
2019-04-05T08:42:21.840Z,416.01
2019-04-05T08:43:22.302Z,415.97
2019-04-05T08:44:22.528Z,416.04
2019-04-05T08:45:22.925Z,416.20
2019-04-05T08:46:23.250Z,416.10
2019-04-05T08:47:23.620Z,416.08
2019-04-05T08:48:23.956Z,416.04
2019-04-05T08:49:24.340Z,415.97
2019-04-05T08:50:24.702Z,415.96
2019-04-05T08:51:25.158Z,416.11
2019-04-05T08:52:26.928Z,416.12
2019-04-05T08:53:25.750Z,416.17
2019-04-05T08:54:32.366Z,416.05
2019-04-05T08:55:27.506Z,416.29
2019-04-05T08:56:26.836Z,416.08
2019-04-05T08:57:27.217Z,416.24
2019-04-05T08:58:33.354Z,416.45
2019-04-05T08:59:28.936Z,416.46
2019-04-05T09:00:28.273Z,416.42
2019-04-05T09:01:28.625Z,416.29
2019-04-05T09:02:29.010Z,416.35
2019-04-05T09:03:29.347Z,415.98
2019-04-05T09:04:29.705Z,416.35
2019-04-05T09:05:33.120Z,416.17
2019-04-05T09:06:30.404Z,415.99
2019-04-05T09:07:30.858Z,410.10
2019-04-05T09:08:31.133Z,410.26
2019-04-05T09:09:31.500Z,410.04
2019-04-05T09:10:31.961Z,410.10
2019-04-05T09:11:32.209Z,410.40
2019-04-05T09:12:32.606Z,410.08
2019-04-05T09:13:32.964Z,410.30
2019-04-05T09:14:33.322Z,410.05
2019-04-05T09:15:33.738Z,410.35
2019-04-05T09:16:34.146Z,410.07
2019-04-05T09:17:34.425Z,410.55
2019-04-05T09:18:34.781Z,410.33
2019-04-05T09:19:35.154Z,410.40
2019-04-05T09:20:35.538Z,410.32
2019-04-05T09:21:40.085Z,410.43
2019-04-05T09:22:36.235Z,410.49
2019-04-05T09:23:36.562Z,410.24
2019-04-05T09:24:37.033Z,410.16
2019-04-05T09:25:37.327Z,410.23
2019-04-05T09:26:37.659Z,410.29
2019-04-05T09:27:38.015Z,409.98
2019-04-05T09:28:38.391Z,410.22
2019-04-05T09:29:38.819Z,409.79
2019-04-05T09:30:39.154Z,410.21
2019-04-05T09:31:39.486Z,410.04
2019-04-05T09:32:39.917Z,410.17
2019-04-05T09:33:40.191Z,410.01
2019-04-05T09:34:40.570Z,409.90
2019-04-05T09:35:41.027Z,410.81
2019-04-05T09:36:41.287Z,410.22
2019-04-05T09:37:41.653Z,409.95
2019-04-05T09:38:42.093Z,410.15
2019-04-05T09:39:42.371Z,410.04
2019-04-05T09:40:42.819Z,409.93
2019-04-05T09:41:43.103Z,416.03
2019-04-05T09:42:43.467Z,416.40
2019-04-05T09:43:43.844Z,416.12
2019-04-05T09:44:44.176Z,416.02
2019-04-05T09:45:44.578Z,416.13
2019-04-05T09:46:48.105Z,415.93
2019-04-05T09:47:46.282Z,416.17
2019-04-05T09:48:45.723Z,416.03
2019-04-05T09:49:46.054Z,416.12
2019-04-05T09:50:46.369Z,416.30
2019-04-05T09:51:46.716Z,416.10
2019-04-05T09:52:47.079Z,416.08
2019-04-05T09:53:47.454Z,415.96
2019-04-05T09:54:47.797Z,416.24
2019-04-05T09:55:48.190Z,416.00
2019-04-05T09:56:48.518Z,416.08
2019-04-05T09:57:49.017Z,416.36
2019-04-05T09:58:49.259Z,416.29
2019-04-05T09:59:49.607Z,416.11
2019-04-05T10:00:50.000Z,416.10
2019-04-05T10:01:50.299Z,416.01
2019-04-05T10:02:50.686Z,416.17
2019-04-05T10:03:51.062Z,415.95
2019-04-05T10:04:51.407Z,415.72
2019-04-05T10:05:52.132Z,415.97
2019-04-05T10:06:52.095Z,415.73
2019-04-05T10:07:55.346Z,416.08
2019-04-05T10:08:52.870Z,416.24
2019-04-05T10:09:53.203Z,415.78
2019-04-05T10:10:53.607Z,415.85
2019-04-05T10:11:53.935Z,416.07
2019-04-05T10:12:54.281Z,415.99
2019-04-05T10:13:54.688Z,416.12
2019-04-05T10:14:54.996Z,416.06
2019-04-05T10:15:55.388Z,416.65
2019-04-05T10:16:55.722Z,415.90
2019-04-05T10:17:56.087Z,416.13
2019-04-05T10:18:56.443Z,415.91
2019-04-05T10:19:56.779Z,416.03
2019-04-05T10:20:57.187Z,415.88
2019-04-05T10:21:57.588Z,416.03
2019-04-05T10:22:57.887Z,415.92
2019-04-05T10:23:58.259Z,416.16
2019-04-05T10:24:58.583Z,416.15
2019-04-05T10:25:59.003Z,415.95
2019-04-05T10:26:59.341Z,415.90
2019-04-05T10:27:59.695Z,416.07
2019-04-05T10:29:00.073Z,416.09
2019-04-05T10:30:00.431Z,416.09
2019-04-05T10:31:00.895Z,416.04
2019-04-05T10:32:01.135Z,416.13
2019-04-05T10:33:01.492Z,416.18
2019-04-05T10:34:01.875Z,415.92
2019-04-05T10:35:02.212Z,416.12
2019-04-05T10:36:02.600Z,415.83
2019-04-05T10:37:02.954Z,416.29
2019-04-05T10:38:03.326Z,416.28
2019-04-05T10:39:03.822Z,416.51
2019-04-05T10:40:04.039Z,415.85
2019-04-05T10:41:04.401Z,416.27
2019-04-05T10:42:04.789Z,416.23
2019-04-05T10:43:05.150Z,416.23
2019-04-05T10:44:05.522Z,416.17
2019-04-05T10:45:05.867Z,416.21
2019-04-05T10:46:06.251Z,416.00
2019-04-05T10:47:06.638Z,416.20
2019-04-05T10:48:06.931Z,416.35
2019-04-05T10:49:07.316Z,416.27
2019-04-05T10:50:07.663Z,416.28
2019-04-05T10:51:08.023Z,416.29
2019-04-05T10:52:08.395Z,416.23
2019-04-05T10:53:08.731Z,416.06
2019-04-05T10:54:09.458Z,416.24
2019-04-05T10:55:09.757Z,415.98
2019-04-05T10:56:09.816Z,416.72
2019-04-05T10:57:10.164Z,410.29
2019-04-05T10:58:10.505Z,410.02
2019-04-05T10:59:10.872Z,416.28
2019-04-05T11:00:11.236Z,416.12
2019-04-05T11:01:11.616Z,416.13
2019-04-05T11:02:12.415Z,416.28
2019-04-05T11:03:12.342Z,416.28
2019-04-05T11:04:12.714Z,416.20
2019-04-05T11:05:13.103Z,416.34
2019-04-05T11:06:13.395Z,416.15
2019-04-05T11:07:13.781Z,416.10
2019-04-05T11:08:14.113Z,416.13
2019-04-05T11:09:14.489Z,416.39
2019-04-05T11:10:14.814Z,416.15
2019-04-05T11:11:15.208Z,416.11
2019-04-05T11:12:15.698Z,416.27
2019-04-05T11:13:15.931Z,416.56
2019-04-05T11:14:16.355Z,416.31
2019-04-05T11:15:16.619Z,416.16
2019-04-05T11:16:17.009Z,416.39
2019-04-05T11:17:17.374Z,416.10
2019-04-05T11:18:17.720Z,416.40
2019-04-05T11:19:18.101Z,416.55
2019-04-05T11:20:22.460Z,416.53
2019-04-05T11:21:18.942Z,415.97
2019-04-05T11:22:20.374Z,416.52
2019-04-05T11:23:21.327Z,416.40
2019-04-05T11:24:19.889Z,416.26
2019-04-05T11:25:20.688Z,416.48
2019-04-05T11:26:20.580Z,416.42
2019-04-05T11:27:20.961Z,416.56
2019-04-05T11:28:21.354Z,416.27
2019-04-05T11:29:21.666Z,416.17
2019-04-05T11:30:22.012Z,416.51
2019-04-05T11:31:22.389Z,416.30
2019-04-05T11:32:22.736Z,416.23
2019-04-05T11:33:23.091Z,416.20
2019-04-05T11:34:23.477Z,416.39
2019-04-05T11:35:23.818Z,416.62
2019-04-05T11:36:24.239Z,416.11
2019-04-05T11:37:24.573Z,416.15
2019-04-05T11:38:24.895Z,416.11
2019-04-05T11:39:25.295Z,416.26
2019-04-05T11:40:25.642Z,416.02
2019-04-05T11:41:26.005Z,416.25
2019-04-05T11:42:26.372Z,415.88
2019-04-05T11:43:29.457Z,410.22
2019-04-05T11:44:27.330Z,409.87
2019-04-05T11:45:27.506Z,416.36
2019-04-05T11:46:27.798Z,415.94
2019-04-05T11:47:28.177Z,416.18
2019-04-05T11:48:30.328Z,416.34
2019-04-05T11:49:28.858Z,416.27
2019-04-05T11:50:34.353Z,416.06
2019-04-05T11:51:30.597Z,416.20
2019-04-05T11:52:29.962Z,416.10
2019-04-05T11:53:30.426Z,416.10
2019-04-05T11:54:30.669Z,415.84
2019-04-05T11:55:31.056Z,416.04
2019-04-05T11:56:31.427Z,416.09
2019-04-05T11:57:31.798Z,416.01
2019-04-05T11:58:32.130Z,415.90
2019-04-05T11:59:32.545Z,415.68
2019-04-05T12:00:32.875Z,415.88
2019-04-05T12:01:33.318Z,416.20
2019-04-05T12:02:33.619Z,416.24
2019-04-05T12:03:33.962Z,415.88
2019-04-05T12:04:34.323Z,415.92
2019-04-05T12:05:34.684Z,415.69
2019-04-05T12:06:35.335Z,415.69
2019-04-05T12:07:35.419Z,415.83
2019-04-05T12:08:35.759Z,415.85
2019-04-05T12:09:36.160Z,415.60
2019-04-05T12:10:36.478Z,415.35
2019-04-05T12:11:36.815Z,415.40
2019-04-05T12:12:37.880Z,415.11
2019-04-05T12:13:38.538Z,415.35
2019-04-05T12:14:39.400Z,415.28
2019-04-05T12:15:38.283Z,416.07
2019-04-05T12:16:38.654Z,415.40
2019-04-05T12:17:39.030Z,415.19
2019-04-05T12:18:39.423Z,415.45
2019-04-05T12:19:40.390Z,415.25
2019-04-05T12:20:49.189Z,415.12
2019-04-05T12:21:41.454Z,415.18
2019-04-05T12:22:40.812Z,415.10
2019-04-05T12:23:41.248Z,415.12
2019-04-05T12:24:41.514Z,415.11
2019-04-05T12:25:41.911Z,415.05
2019-04-05T12:26:50.383Z,415.20
2019-04-05T12:27:42.626Z,415.14
2019-04-05T12:28:43.918Z,415.13
2019-04-05T12:29:43.313Z,415.08
2019-04-05T12:30:45.796Z,415.24
2019-04-05T12:31:44.976Z,415.12
2019-04-05T12:32:46.629Z,414.97